La Crosse, IN (46348)

6:24 PM CDT on September 01, 2015 (GMT -0500)
LaCrosse | | Change Station
CLOSE
Current Station
Personal Weather Station
Location: La Crosse, IN
Elevation: 705 ft
Nearby Weather Stations
Active Advisory: Air Quality Alert

Elev 705 ft 41.35 °N, 86.93 °W | Updated 2 minutes ago

Clear
Clear
84.2 °F
Feels Like 92 °F
N
0.0
Wind Variable Wind from WSW
Gusts 0.0 mph

Today
High -- | Low -- °F
--% Chance of Precip.
Yesterday
High -- | Low -- °F
Precip. -- in
6:13 AM 7:20 PM
Waning Gibbous, 85% visible
Pressure 30.02 in
Visibility 10.0 miles
Clouds Clear
Heat Index 92 °F
Dew Point 75 °F
Humidity 73%
Rainfall 0.00 in
Snow Depth Not available.
UV 1 out of 12
Pollen 10.60 out of 12
Air Quality Not available.
Flu Activity Not available.
METAR KVPZ 012256Z AUTO 21007KT 10SM CLR 29/22 A3004 RMK AO2 SLP166 T02940217 TSNO
Pressure 30.02 in
Visibility 10.0 miles
Clouds Clear
Heat Index 92 °F
Dew Point 75 °F
Humidity 73%
Rainfall 0.00 in
Snow Depth Not available.
UV 1 out of 12
Pollen 10.60 out of 12
Air Quality Not available.
Flu Activity Not available.
METAR KVPZ 012256Z AUTO 21007KT 10SM CLR 29/22 A3004 RMK AO2 SLP166 T02940217 TSNO

10-Day Weather Forecast

×

Almanac

Astronomy

Sep. 01, 2015 Rise Set
Actual Time
Civil Twilight
Nautical Twilight
Astronomical Twilight
Moon
Length of Visible Light
Length of Day
Tomorrow will be .
, % of the Moon is Illuminated

Today's Extremes

State Highs State Lows

Community

WunderPhotos

Upload Photos

1,851,640 photos uploaded!

WunderBlogs® & News

Nearby

Air Quality

  Air Quality AQ Index Pollutant
Not available.

Snow Depth

Station Depth Elevation

Earthquake Activity

City Distance Mag. Time & Date
Minimum magnitude displayed is 2.5.

Coastal Water Temperatures

Place Temperature

Stations

Nearby Weather Stations

Station Location Temp. Windchill Dew Point Humidity Wind Precip. Elev Updated Type
                   
Air Quality Alert
Statement as of 3:03 PM EDT on September 01, 2015

... Air quality alert in effect for Wednesday...

An air quality action day has been declared by the Indiana
department of environmental management for LaPorte... St. Joseph
and Elkhart counties in Indiana... and is in effect for Wednesday.

Ozone levels are expected to be in the Orange or unhealthy for
sensitive groups range. For additional information... please visit
the idem smog watch web site at www.In.Gov/Apps/idem/smog/ or the
EPA airnow web site at www.Airnow.Gov and click on Indiana.


303 PM EDT Tue Sep 1 2015

... Air quality alert in effect for Wednesday...

An air quality action day has been declared by the Indiana
department of environmental management for LaPorte... St. Joseph
and Elkhart counties in Indiana... and is in effect for Wednesday.

Ozone levels are expected to be in the Orange or unhealthy for
sensitive groups range. For additional information... please visit
the idem smog watch web site at www.In.Gov/Apps/idem/smog/ or the
EPA airnow web site at www.Airnow.Gov and click on Indiana.